createdAt,value
2022-11-13T00:02:12.935Z,102049.25
2022-11-13T00:04:59.630Z,102047.28
2022-11-13T00:07:45.434Z,102052.47
2022-11-13T00:10:32.179Z,102046.97
2022-11-13T00:13:18.497Z,102051.75
2022-11-13T00:16:06.266Z,102045.66
2022-11-13T00:18:52.377Z,102049.69
2022-11-13T00:21:37.958Z,102057.00
2022-11-13T00:24:24.199Z,102054.41
2022-11-13T00:27:10.905Z,102061.66
2022-11-13T00:29:56.690Z,102062.13
2022-11-13T00:32:42.267Z,102067.63
2022-11-13T00:35:27.980Z,102059.75
2022-11-13T00:38:14.707Z,102063.06
2022-11-13T00:41:01.094Z,102066.91
2022-11-13T00:43:47.447Z,102078.53
2022-11-13T00:46:33.505Z,102083.50
2022-11-13T00:49:19.930Z,102089.47
2022-11-13T00:52:06.453Z,102078.81
2022-11-13T00:54:52.297Z,102073.03
2022-11-13T00:57:38.336Z,102074.16
2022-11-13T01:00:23.796Z,102078.41
2022-11-13T01:03:10.553Z,102070.28
2022-11-13T01:05:56.738Z,102065.28
2022-11-13T01:08:42.521Z,102062.91
2022-11-13T01:11:28.816Z,102051.75
2022-11-13T01:14:14.796Z,102035.81
2022-11-13T01:17:00.925Z,102036.75
2022-11-13T01:19:47.398Z,102029.50
2022-11-13T01:22:33.169Z,102031.28
2022-11-13T01:25:18.924Z,102037.75
2022-11-13T01:28:04.632Z,102034.78
2022-11-13T01:30:50.905Z,102030.97
2022-11-13T01:33:37.401Z,102028.72
2022-11-13T01:36:24.478Z,102028.16
2022-11-13T01:39:11.240Z,102026.88
2022-11-13T01:41:57.339Z,102027.13
2022-11-13T01:44:47.618Z,102027.31
2022-11-13T01:47:33.595Z,102031.22
2022-11-13T01:50:19.482Z,102034.97
2022-11-13T01:53:06.567Z,102029.16
2022-11-13T01:55:52.473Z,102034.25
2022-11-13T01:58:40.376Z,102027.59
2022-11-13T02:01:26.469Z,102015.72
2022-11-13T02:04:13.244Z,102035.41
2022-11-13T02:07:00.487Z,102034.66
2022-11-13T02:09:47.571Z,102033.44
2022-11-13T02:12:33.831Z,102026.28
2022-11-13T02:15:23.676Z,102029.19
2022-11-13T02:18:11.488Z,102020.25
2022-11-13T02:21:11.131Z,102026.38
2022-11-13T02:24:01.378Z,102018.09
2022-11-13T02:26:48.208Z,102018.66
2022-11-13T02:29:33.899Z,102013.97
2022-11-13T02:32:20.263Z,102005.63
2022-11-13T02:35:05.912Z,102008.25
2022-11-13T02:37:51.905Z,102002.00
2022-11-13T02:40:39.202Z,102002.84
2022-11-13T02:43:25.425Z,102003.66
2022-11-13T02:46:11.261Z,101994.94
2022-11-13T02:48:56.948Z,101998.91
2022-11-13T02:51:42.796Z,102003.16
2022-11-13T02:54:28.585Z,102004.22
2022-11-13T02:57:14.146Z,102002.47
2022-11-13T03:00:00.539Z,101998.59
2022-11-13T03:02:46.281Z,101996.69
2022-11-13T03:05:31.925Z,102000.94
2022-11-13T03:08:18.074Z,101997.47
2022-11-13T03:11:07.862Z,102003.66
2022-11-13T03:13:54.051Z,102002.72
2022-11-13T03:16:39.880Z,102005.81
2022-11-13T03:19:26.693Z,102009.88
2022-11-13T03:22:12.949Z,102011.22
2022-11-13T03:24:59.448Z,102008.53
2022-11-13T03:27:45.575Z,102013.31
2022-11-13T03:30:31.691Z,102009.16
2022-11-13T03:33:17.434Z,102016.25
2022-11-13T03:36:03.520Z,102015.03
2022-11-13T03:38:49.621Z,102018.91
2022-11-13T03:41:35.615Z,102020.94
2022-11-13T03:44:21.692Z,102014.25
2022-11-13T03:47:07.312Z,102010.47
2022-11-13T03:49:53.086Z,102008.38
2022-11-13T03:52:39.001Z,102007.78
2022-11-13T03:55:24.779Z,102005.88
2022-11-13T03:58:10.772Z,102003.72
2022-11-13T04:00:56.411Z,102003.03
2022-11-13T04:03:41.919Z,101997.84
2022-11-13T04:06:30.342Z,101993.94
2022-11-13T04:09:16.276Z,101983.56
2022-11-13T04:12:01.699Z,101994.44
2022-11-13T04:14:48.148Z,101993.50
2022-11-13T04:17:33.893Z,101987.47
2022-11-13T04:20:20.341Z,101993.84
2022-11-13T04:23:09.690Z,101985.03
2022-11-13T04:25:55.543Z,101987.34
2022-11-13T04:28:41.383Z,101996.69
2022-11-13T04:31:27.159Z,101990.41
2022-11-13T04:34:13.942Z,101990.16
2022-11-13T04:36:59.635Z,101995.94
2022-11-13T04:39:45.439Z,101988.44
2022-11-13T04:42:49.513Z,101988.88
2022-11-13T04:45:36.341Z,101987.84
2022-11-13T04:48:22.634Z,101994.28
2022-11-13T04:51:08.575Z,101991.50
2022-11-13T04:53:54.490Z,101990.56
2022-11-13T04:56:40.507Z,101993.13
2022-11-13T04:59:26.598Z,101982.75
2022-11-13T05:02:12.889Z,101983.34
2022-11-13T05:05:04.432Z,101980.13
2022-11-13T05:07:51.102Z,101985.38
2022-11-13T05:10:37.042Z,101984.59
2022-11-13T05:13:23.386Z,101991.56
2022-11-13T05:16:10.864Z,101990.78
2022-11-13T05:18:58.358Z,101989.34
2022-11-13T05:21:44.460Z,101995.88
2022-11-13T05:24:30.933Z,101991.63
2022-11-13T05:27:17.786Z,102006.97
2022-11-13T05:30:04.166Z,102011.19
2022-11-13T05:32:49.876Z,102013.94
2022-11-13T05:35:35.903Z,102022.06
2022-11-13T05:38:21.628Z,102017.66
2022-11-13T05:41:08.867Z,102027.38
2022-11-13T05:43:59.209Z,102027.28
2022-11-13T05:46:45.655Z,102034.00
2022-11-13T05:49:31.438Z,102022.78
2022-11-13T05:52:16.874Z,102009.88
2022-11-13T05:55:02.902Z,102009.03
2022-11-13T05:57:48.578Z,102007.66
2022-11-13T06:00:33.981Z,102002.72
2022-11-13T06:03:20.409Z,101994.34
2022-11-13T06:06:07.576Z,102003.22
2022-11-13T06:08:54.700Z,102012.78
2022-11-13T06:11:40.433Z,102027.84
2022-11-13T06:14:27.278Z,102036.00
2022-11-13T06:17:13.354Z,102040.19
2022-11-13T06:20:00.061Z,102048.25
2022-11-13T06:22:45.587Z,102048.31
2022-11-13T06:25:32.051Z,102057.63
2022-11-13T06:28:18.343Z,102066.53
2022-11-13T06:31:15.385Z,102065.75
2022-11-13T06:34:01.966Z,102057.72
2022-11-13T06:36:47.831Z,102058.19
2022-11-13T06:39:33.854Z,102068.63
2022-11-13T06:42:20.345Z,102070.09
2022-11-13T06:45:06.573Z,102078.00
2022-11-13T06:47:54.275Z,102069.63
2022-11-13T06:50:42.388Z,102066.44
2022-11-13T06:53:31.986Z,102068.97
2022-11-13T06:56:18.102Z,102063.69
2022-11-13T06:59:08.287Z,102080.09
2022-11-13T10:11:11.591Z,102022.41
2022-11-13T10:14:03.395Z,102018.88
2022-11-13T10:16:54.971Z,102017.81
2022-11-13T10:19:43.329Z,102027.63
2022-11-13T10:23:19.873Z,102026.56
2022-11-13T10:26:17.563Z,102032.56
2022-11-13T10:29:11.291Z,102038.06
2022-11-13T10:31:58.811Z,102028.28
2022-11-13T10:34:59.668Z,102029.34
2022-11-13T10:37:54.397Z,102012.16
2022-11-13T10:40:41.155Z,102006.19
2022-11-13T10:43:32.368Z,102012.63
2022-11-13T10:46:22.102Z,102021.50
2022-11-13T10:49:19.616Z,101994.91
2022-11-13T10:52:16.716Z,101995.97
2022-11-13T10:55:23.910Z,101992.13
2022-11-13T10:58:15.190Z,101990.84
2022-11-13T11:01:01.993Z,101992.47
2022-11-13T11:03:51.132Z,101983.84
2022-11-13T11:09:46.853Z,101979.03
2022-11-13T11:12:33.444Z,101980.19
2022-11-13T11:15:25.077Z,101977.09
2022-11-13T11:18:29.342Z,101966.91
2022-11-13T11:21:25.661Z,101964.19
2022-11-13T11:24:18.886Z,101958.00
2022-11-13T11:27:10.390Z,101958.72
2022-11-13T11:30:03.426Z,101962.88
2022-11-13T11:32:52.173Z,101967.41
2022-11-13T11:35:46.512Z,101956.75
2022-11-13T11:38:40.314Z,101945.44
2022-11-13T11:41:29.684Z,101940.69
2022-11-13T11:44:21.724Z,101931.06
2022-11-13T11:47:14.753Z,101924.84
2022-11-13T11:50:01.649Z,101928.44
2022-11-13T11:52:47.467Z,101926.16
2022-11-13T11:55:33.830Z,101923.94
2022-11-13T11:58:34.484Z,101916.66
2022-11-13T12:01:56.037Z,101903.59
2022-11-13T12:05:00.793Z,101897.75
2022-11-13T12:07:54.603Z,101897.22
2022-11-13T12:10:49.676Z,101893.97
2022-11-13T12:13:41.153Z,101900.16
2022-11-13T12:16:32.384Z,101892.53
2022-11-13T12:19:37.424Z,101892.84
2022-11-13T12:22:43.930Z,101892.50
2022-11-13T12:25:42.212Z,101879.00
2022-11-13T12:28:49.764Z,101874.44
2022-11-13T12:32:09.051Z,101865.34
2022-11-13T12:34:58.486Z,101858.47
2022-11-13T12:37:59.747Z,101857.47
2022-11-13T12:40:53.017Z,101854.03
2022-11-13T12:44:11.841Z,101853.41
2022-11-13T12:47:00.743Z,101849.88
2022-11-13T12:49:46.938Z,101848.03
2022-11-13T12:52:33.183Z,101843.63
2022-11-13T12:55:27.970Z,101840.78
2022-11-13T12:58:33.177Z,101837.31
2022-11-13T13:01:20.912Z,101838.78
2022-11-13T13:04:16.275Z,101818.28
2022-11-13T13:07:09.573Z,101835.91
2022-11-13T13:09:55.988Z,101823.28
2022-11-13T13:12:51.079Z,101828.09
2022-11-13T13:15:40.379Z,101825.25
2022-11-13T13:18:30.103Z,101826.09
2022-11-13T13:21:18.907Z,101820.69
2022-11-13T13:24:09.827Z,101835.31
2022-11-13T13:26:56.239Z,101834.09
2022-11-13T13:29:42.270Z,101832.34
2022-11-13T13:32:33.963Z,101830.00
2022-11-13T13:35:23.035Z,101839.31
2022-11-13T13:38:15.002Z,101832.63
2022-11-13T13:41:00.926Z,101825.16
2022-11-13T13:43:47.558Z,101829.41
2022-11-13T13:46:34.741Z,101826.75
2022-11-13T13:49:22.944Z,101835.66
2022-11-13T13:52:14.561Z,101827.50
2022-11-13T13:55:03.018Z,101826.25
2022-11-13T13:57:52.239Z,101824.56
2022-11-13T14:00:59.157Z,101832.03
2022-11-13T14:03:47.015Z,101823.09
2022-11-13T14:10:14.544Z,101822.63
2022-11-13T14:16:13.356Z,101828.56
2022-11-13T14:19:04.128Z,101829.09
2022-11-13T14:21:53.243Z,101824.41
2022-11-13T14:24:47.625Z,101828.22
2022-11-13T14:27:35.168Z,101826.09
2022-11-13T14:30:30.055Z,101825.00
2022-11-13T14:33:18.000Z,101832.31
2022-11-13T14:36:08.804Z,101830.63
2022-11-13T14:39:00.434Z,101835.56
2022-11-13T14:41:54.261Z,101835.88
2022-11-13T14:44:40.511Z,101846.25
2022-11-13T14:48:16.904Z,101844.91
2022-11-13T14:51:07.194Z,101838.28
2022-11-13T14:54:09.066Z,101840.88
2022-11-13T14:57:13.076Z,101831.34
2022-11-13T15:00:13.276Z,101831.25
2022-11-13T15:03:02.116Z,101835.84
2022-11-13T15:06:33.113Z,101828.38
2022-11-13T15:09:48.558Z,101827.41
2022-11-13T15:12:40.762Z,101826.78
2022-11-13T15:15:36.947Z,101826.44
2022-11-13T15:18:27.724Z,101825.59
2022-11-13T15:21:13.526Z,101827.75
2022-11-13T15:24:01.550Z,101824.50
2022-11-13T15:26:50.892Z,101828.28
2022-11-13T15:29:38.043Z,101833.53
2022-11-13T15:32:31.883Z,101834.78
2022-11-13T15:35:18.776Z,101824.63
2022-11-13T15:38:08.667Z,101828.03
2022-11-13T15:40:55.553Z,101831.59
2022-11-13T15:43:52.525Z,101829.41
2022-11-13T15:47:04.419Z,101825.81
2022-11-13T15:50:10.173Z,101827.72
2022-11-13T15:53:22.006Z,101827.53
2022-11-13T15:56:10.901Z,101828.22
2022-11-13T15:59:00.408Z,101823.19
2022-11-13T16:01:47.822Z,101825.56
2022-11-13T16:04:55.531Z,101825.69
2022-11-13T16:07:43.751Z,101820.19
2022-11-13T16:10:32.369Z,101812.59
2022-11-13T16:13:29.063Z,101815.94
2022-11-13T16:16:53.447Z,101818.72
2022-11-13T16:19:59.669Z,101819.34
2022-11-13T16:22:46.487Z,101815.50
2022-11-13T16:25:38.923Z,101826.00
2022-11-13T16:28:42.006Z,101822.22
2022-11-13T16:33:23.214Z,101821.19
2022-11-13T16:40:01.784Z,101827.41
2022-11-13T16:46:35.815Z,101826.81
2022-11-13T16:49:45.675Z,101828.38
2022-11-13T16:53:06.674Z,101839.44
2022-11-13T16:56:09.520Z,101835.84
2022-11-13T17:02:41.787Z,101839.81
2022-11-13T17:05:52.962Z,101848.47
2022-11-13T17:13:30.263Z,101842.84
2022-11-13T17:20:19.517Z,101844.75
2022-11-13T17:27:02.267Z,101838.63
2022-11-13T17:30:20.059Z,101839.66
2022-11-13T17:33:09.509Z,101839.47
2022-11-13T18:23:07.146Z,101855.63
2022-11-13T18:26:44.436Z,101856.22
2022-11-13T18:30:13.759Z,101857.16
2022-11-13T18:33:43.222Z,101855.84
2022-11-13T18:36:59.105Z,101857.88
2022-11-13T18:44:25.699Z,101858.81
2022-11-13T18:48:13.480Z,101859.00
2022-11-13T18:55:26.007Z,101856.97
2022-11-13T18:58:18.464Z,101858.66
2022-11-13T19:02:03.479Z,101868.94
2022-11-13T19:04:52.036Z,101864.13
2022-11-13T19:07:43.061Z,101862.59
2022-11-13T19:10:29.807Z,101861.59
2022-11-13T19:13:43.963Z,101868.41
2022-11-13T19:17:17.727Z,101867.81
2022-11-13T19:20:08.987Z,101866.50
2022-11-13T19:23:21.175Z,101873.81
2022-11-13T19:26:43.999Z,101876.31
2022-11-13T19:33:16.370Z,101878.38
2022-11-13T19:36:14.326Z,101871.75
2022-11-13T19:43:06.096Z,101879.34
2022-11-13T19:57:05.657Z,101883.47
2022-11-13T20:00:15.099Z,101879.13
2022-11-13T20:03:35.733Z,101880.84
2022-11-13T20:14:06.284Z,101876.56
2022-11-13T20:17:06.915Z,101868.94
2022-11-13T20:20:19.302Z,101874.53
2022-11-13T20:23:18.407Z,101869.03
2022-11-13T20:26:29.925Z,101872.91
2022-11-13T20:29:22.547Z,101870.78
2022-11-13T20:32:12.830Z,101871.19
2022-11-13T20:35:02.945Z,101864.06
2022-11-13T20:37:57.273Z,101868.59
2022-11-13T20:40:49.959Z,101870.53
2022-11-13T20:43:50.228Z,101871.75
2022-11-13T20:46:40.596Z,101866.22
2022-11-13T20:49:27.319Z,101867.03
2022-11-13T20:52:28.701Z,101876.22
2022-11-13T20:55:21.999Z,101873.94
2022-11-13T20:58:16.329Z,101866.38
2022-11-13T21:01:32.855Z,101870.88
2022-11-13T21:07:45.766Z,101862.47
2022-11-13T21:10:35.531Z,101872.56
2022-11-13T21:13:22.242Z,101871.63
2022-11-13T21:16:09.698Z,101862.25
2022-11-13T21:19:05.368Z,101870.03
2022-11-13T21:22:16.689Z,101869.34
2022-11-13T21:25:11.085Z,101873.53
2022-11-13T21:28:03.040Z,101867.56
2022-11-13T21:30:52.851Z,101861.97
2022-11-13T21:33:41.573Z,101863.59
2022-11-13T21:36:32.754Z,101860.84
2022-11-13T21:39:35.258Z,101855.59
2022-11-13T21:42:23.472Z,101863.31
2022-11-13T21:45:09.843Z,101853.22
2022-11-13T21:48:06.023Z,101863.31
2022-11-13T21:50:59.123Z,101860.94
2022-11-13T21:53:51.977Z,101867.38
2022-11-13T21:56:42.418Z,101862.00
2022-11-13T21:59:34.503Z,101864.81
2022-11-13T22:02:30.658Z,101855.88
2022-11-13T22:05:19.943Z,101855.81
2022-11-13T22:08:51.446Z,101867.34
2022-11-13T22:12:06.122Z,101864.13
2022-11-13T22:15:14.812Z,101857.09
2022-11-13T22:18:10.575Z,101864.56
2022-11-13T22:21:25.367Z,101853.53
2022-11-13T22:24:34.134Z,101861.75
2022-11-13T22:27:20.178Z,101855.63
2022-11-13T22:30:10.035Z,101847.28
2022-11-13T22:32:56.412Z,101849.84
2022-11-13T22:35:43.454Z,101844.59
2022-11-13T22:38:52.944Z,101847.66
2022-11-13T22:42:04.298Z,101846.47
2022-11-13T22:44:57.055Z,101849.16
2022-11-13T22:51:14.752Z,101846.66
2022-11-13T22:58:59.131Z,101848.00
2022-11-13T23:04:38.951Z,101846.78
2022-11-13T23:11:39.335Z,101839.97
2022-11-13T23:14:57.773Z,101849.88
2022-11-13T23:17:48.051Z,101839.75
2022-11-13T23:20:38.491Z,101837.47
2022-11-13T23:26:39.459Z,101830.19
2022-11-13T23:29:26.262Z,101829.53
2022-11-13T23:32:37.590Z,101823.09
2022-11-13T23:35:52.937Z,101828.16
2022-11-13T23:38:48.060Z,101816.22
2022-11-13T23:41:54.515Z,101822.66
2022-11-13T23:44:41.130Z,101823.09
2022-11-13T23:47:41.417Z,101820.94
2022-11-13T23:50:52.577Z,101829.84
2022-11-13T23:53:39.293Z,101833.19
2022-11-13T23:56:59.157Z,101823.09
2022-11-13T23:59:51.271Z,101817.91
